createdAt,value
2018-12-05T00:01:29.039Z,42.43
2018-12-05T00:06:35.295Z,30.80
2018-12-05T00:11:39.782Z,28.70
2018-12-05T00:16:44.511Z,33.53
2018-12-05T00:21:48.734Z,29.77
2018-12-05T00:26:52.937Z,36.73
2018-12-05T00:31:57.143Z,35.33
2018-12-05T00:37:01.389Z,34.77
2018-12-05T00:42:05.715Z,32.27
2018-12-05T00:47:10.155Z,34.07
2018-12-05T00:52:14.472Z,31.70
2018-12-05T00:57:19.765Z,36.43
2018-12-05T01:02:24.892Z,32.03
2018-12-05T01:07:29.242Z,38.67
2018-12-05T01:12:34.048Z,41.20
2018-12-05T01:17:38.387Z,38.03
2018-12-05T01:22:42.736Z,31.30
2018-12-05T01:27:47.202Z,33.90
2018-12-05T01:32:51.452Z,26.20
2018-12-05T01:37:55.652Z,25.33
2018-12-05T01:42:59.884Z,33.20
2018-12-05T01:48:04.193Z,34.47
2018-12-05T01:53:13.534Z,29.77
2018-12-05T01:58:17.769Z,32.47
2018-12-05T02:03:27.031Z,31.33
2018-12-05T02:08:31.163Z,32.97
2018-12-05T02:13:35.441Z,32.07
2018-12-05T02:18:39.733Z,27.97
2018-12-05T02:23:44.040Z,32.97
2018-12-05T02:28:48.257Z,45.50
2018-12-05T02:33:52.547Z,34.43
2018-12-05T02:38:56.838Z,27.50
2018-12-05T02:44:01.129Z,25.40
2018-12-05T02:49:05.712Z,30.27
2018-12-05T02:54:09.894Z,30.43
2018-12-05T02:59:14.206Z,27.43
2018-12-05T03:04:18.884Z,32.17
2018-12-05T03:09:23.137Z,29.93
2018-12-05T03:14:27.463Z,33.17
2018-12-05T03:19:31.972Z,35.83
2018-12-05T03:24:36.440Z,37.13
2018-12-05T03:29:40.588Z,33.90
2018-12-05T03:34:46.892Z,27.47
2018-12-05T03:39:51.296Z,31.13
2018-12-05T03:44:55.648Z,35.20
2018-12-05T03:50:03.634Z,35.73
2018-12-05T03:55:07.867Z,32.10
2018-12-05T04:00:12.315Z,33.43
2018-12-05T04:05:16.534Z,29.30
2018-12-05T04:10:21.077Z,28.47
2018-12-05T04:15:25.557Z,32.37
2018-12-05T04:20:29.767Z,28.37
2018-12-05T04:25:34.104Z,30.43
2018-12-05T04:30:38.246Z,40.70
2018-12-05T04:35:44.511Z,40.17
2018-12-05T04:40:49.225Z,45.00
2018-12-05T04:45:53.636Z,38.87
2018-12-05T04:50:58.132Z,37.33
2018-12-05T04:56:02.354Z,35.60
2018-12-05T05:01:06.935Z,35.93
2018-12-05T05:06:11.268Z,34.40
2018-12-05T05:11:15.452Z,33.07
2018-12-05T05:16:19.683Z,39.03
2018-12-05T05:21:23.919Z,38.50
2018-12-05T05:26:28.157Z,34.10
2018-12-05T05:31:33.336Z,38.17
2018-12-05T05:36:37.993Z,34.57
2018-12-05T05:41:42.386Z,41.10
2018-12-05T05:46:47.148Z,42.67
2018-12-05T05:51:51.399Z,38.50
2018-12-05T05:56:57.151Z,46.63
2018-12-05T06:02:01.813Z,34.30
2018-12-05T06:07:06.145Z,30.87
2018-12-05T06:12:12.033Z,32.93
2018-12-05T06:17:16.456Z,30.67
2018-12-05T06:22:20.871Z,29.73
2018-12-05T06:27:25.095Z,36.37
2018-12-05T06:32:29.355Z,34.00
2018-12-05T06:37:33.676Z,28.13
2018-12-05T06:42:38.021Z,30.50
2018-12-05T06:47:42.279Z,27.50
2018-12-05T06:52:46.493Z,26.57
2018-12-05T06:57:50.942Z,29.73
2018-12-05T07:02:55.453Z,35.23
2018-12-05T07:07:59.797Z,32.13
2018-12-05T07:13:04.988Z,29.33
2018-12-05T07:18:09.590Z,29.90
2018-12-05T07:23:13.808Z,25.93
2018-12-05T07:28:18.081Z,26.47
2018-12-05T07:33:22.394Z,27.27
2018-12-05T07:38:26.616Z,27.40
2018-12-05T07:43:30.965Z,27.00
2018-12-05T07:48:35.275Z,30.20
2018-12-05T07:53:39.634Z,28.10
2018-12-05T07:58:44.027Z,31.70
2018-12-05T08:03:50.157Z,33.80
2018-12-05T08:08:54.370Z,30.73
2018-12-05T08:13:58.644Z,31.07
2018-12-05T08:19:03.052Z,33.37
2018-12-05T08:24:07.230Z,28.10
2018-12-05T08:29:11.714Z,26.50
2018-12-05T08:34:15.999Z,24.83
2018-12-05T08:39:20.456Z,26.20
2018-12-05T08:44:24.662Z,24.40
2018-12-05T08:49:28.948Z,27.97
2018-12-05T08:54:33.293Z,24.43
2018-12-05T08:59:37.691Z,21.47
2018-12-05T09:04:46.940Z,23.70
2018-12-05T09:09:51.690Z,23.93
2018-12-05T09:14:56.372Z,25.17
2018-12-05T09:20:01.053Z,25.37
2018-12-05T09:25:05.874Z,18.47
2018-12-05T09:30:10.348Z,21.60
2018-12-05T09:35:14.715Z,21.13
2018-12-05T09:40:19.376Z,21.67
2018-12-05T09:45:23.746Z,21.70
2018-12-05T09:50:28.291Z,21.57
2018-12-05T09:55:32.627Z,19.37
2018-12-05T10:00:37.717Z,20.30
2018-12-05T10:05:47.231Z,21.57
2018-12-05T10:10:51.498Z,21.00
2018-12-05T10:15:55.750Z,22.30
2018-12-05T10:20:59.948Z,19.97
2018-12-05T10:26:05.304Z,21.63
2018-12-05T10:31:09.901Z,20.07
2018-12-05T10:36:14.808Z,20.90
2018-12-05T10:41:19.861Z,20.67
2018-12-05T10:46:25.057Z,24.00
2018-12-05T10:51:29.871Z,21.23
2018-12-05T10:56:34.044Z,20.90
2018-12-05T11:01:43.796Z,20.30
2018-12-05T11:06:53.211Z,21.60
2018-12-05T11:12:02.818Z,22.93
2018-12-05T11:17:12.422Z,21.20
2018-12-05T11:22:22.243Z,20.63
2018-12-05T11:27:27.178Z,23.13
2018-12-05T11:32:38.579Z,23.37
2018-12-05T11:37:42.725Z,24.00
2018-12-05T11:42:47.088Z,31.07
2018-12-05T11:47:51.394Z,23.20
2018-12-05T11:52:55.838Z,24.67
2018-12-05T11:58:02.239Z,28.10
2018-12-05T12:03:06.977Z,29.07
2018-12-05T12:08:13.692Z,20.33
2018-12-05T12:13:18.153Z,22.17
2018-12-05T12:18:22.412Z,21.53
2018-12-05T12:23:32.056Z,21.73
2018-12-05T12:28:36.169Z,19.77
2018-12-05T12:33:40.763Z,21.13
2018-12-05T12:38:45.001Z,20.83
2018-12-05T12:43:49.224Z,21.07
2018-12-05T12:48:53.606Z,23.37
2018-12-05T12:59:13.504Z,18.63
2018-12-05T13:04:17.709Z,20.97
2018-12-05T13:09:21.871Z,21.47
2018-12-05T13:14:26.166Z,20.70
2018-12-05T13:19:30.377Z,24.93
2018-12-05T13:24:34.597Z,22.47
2018-12-05T13:29:40.268Z,23.77
2018-12-05T13:34:45.201Z,22.93
2018-12-05T13:39:49.882Z,19.87
2018-12-05T13:44:54.320Z,20.27
2018-12-05T13:49:59.652Z,20.90
2018-12-05T13:55:04.232Z,21.40
2018-12-05T14:00:09.147Z,23.07
2018-12-05T14:05:13.571Z,21.00
2018-12-05T14:10:17.846Z,27.03
2018-12-05T14:15:28.270Z,26.73
2018-12-05T14:20:32.563Z,20.50
2018-12-05T14:25:36.970Z,22.43
2018-12-05T14:30:41.227Z,21.33
2018-12-05T14:35:45.496Z,21.60
2018-12-05T14:40:49.791Z,28.73
2018-12-05T14:45:53.993Z,21.43
2018-12-05T14:50:58.379Z,20.40
2018-12-05T14:56:02.609Z,23.50
2018-12-05T15:01:06.717Z,23.10
2018-12-05T15:06:11.684Z,26.07
2018-12-05T15:11:16.317Z,24.47
2018-12-05T15:16:20.785Z,23.27
2018-12-05T15:21:25.389Z,26.23
2018-12-05T15:26:29.857Z,22.10
2018-12-05T15:31:34.369Z,27.53
2018-12-05T15:36:39.017Z,27.17
2018-12-05T15:41:43.629Z,23.53
2018-12-05T15:46:47.837Z,25.93
2018-12-05T15:51:52.265Z,22.37
2018-12-05T15:56:56.441Z,28.53
2018-12-05T16:02:00.973Z,30.27
2018-12-05T16:07:05.381Z,32.07
2018-12-05T16:12:09.821Z,29.47
2018-12-05T16:17:14.415Z,28.03
2018-12-05T16:22:19.108Z,28.47
2018-12-05T16:27:23.493Z,31.10
2018-12-05T16:32:27.773Z,26.77
2018-12-05T16:37:32.253Z,27.63
2018-12-05T16:42:37.879Z,26.60
2018-12-05T16:47:42.296Z,25.07
2018-12-05T16:52:46.627Z,29.23
2018-12-05T16:57:50.862Z,30.43
2018-12-05T17:02:55.885Z,27.97
2018-12-05T17:08:00.259Z,33.73
2018-12-05T17:13:05.471Z,25.47
2018-12-05T17:18:09.902Z,29.27
2018-12-05T17:23:14.179Z,27.47
2018-12-05T17:28:18.534Z,25.00
2018-12-05T17:33:22.804Z,24.07
2018-12-05T17:38:27.102Z,24.17
2018-12-05T17:43:31.424Z,24.50
2018-12-05T17:48:35.684Z,24.40
2018-12-05T17:53:40.044Z,26.63
2018-12-05T17:58:44.322Z,27.50
2018-12-05T18:03:48.565Z,28.07
2018-12-05T18:08:52.859Z,24.07
2018-12-05T18:13:57.088Z,21.30
2018-12-05T18:19:01.455Z,25.67
2018-12-05T18:24:05.672Z,27.77
2018-12-05T18:29:09.984Z,27.83
2018-12-05T18:34:14.234Z,28.57
2018-12-05T18:39:18.451Z,24.97
2018-12-05T18:44:22.620Z,23.13
2018-12-05T18:49:27.342Z,22.40
2018-12-05T18:54:32.385Z,29.53
2018-12-05T19:04:52.885Z,30.80
2018-12-05T19:09:58.116Z,25.97
2018-12-05T19:15:02.420Z,26.40
2018-12-05T19:20:13.002Z,26.23
2018-12-05T19:25:18.657Z,24.57
2018-12-05T19:30:37.653Z,25.17
2018-12-05T19:35:47.110Z,25.60
2018-12-05T19:40:51.327Z,29.60
2018-12-05T19:45:55.694Z,27.83
2018-12-05T19:51:01.603Z,30.47
2018-12-05T19:56:05.817Z,24.70
2018-12-05T20:01:10.127Z,23.47
2018-12-05T20:06:14.489Z,25.07
2018-12-05T20:11:18.709Z,24.30
2018-12-05T20:16:23.121Z,23.67
2018-12-05T20:21:27.603Z,22.90
2018-12-05T20:26:32.135Z,23.90
2018-12-05T20:31:37.601Z,23.47
2018-12-05T20:36:41.963Z,27.80
2018-12-05T20:41:46.506Z,25.70
2018-12-05T20:46:51.677Z,24.90
2018-12-05T20:51:57.006Z,29.90
2018-12-05T20:57:01.361Z,28.77
2018-12-05T21:02:05.945Z,31.47
2018-12-05T21:07:10.386Z,28.23
2018-12-05T21:12:14.896Z,26.80
2018-12-05T21:17:19.641Z,27.67
2018-12-05T21:22:24.066Z,26.80
2018-12-05T21:27:28.446Z,28.27
2018-12-05T21:32:33.009Z,31.17
2018-12-05T21:37:37.446Z,36.67
2018-12-05T21:42:41.873Z,32.17
2018-12-05T21:47:46.323Z,32.37
2018-12-05T21:52:51.051Z,33.30
2018-12-05T21:57:55.235Z,27.33
2018-12-05T22:02:59.436Z,26.73
2018-12-05T22:08:03.561Z,30.67
2018-12-05T22:13:07.768Z,28.53
2018-12-05T22:18:11.931Z,28.63
2018-12-05T22:23:16.047Z,33.40
2018-12-05T22:28:20.133Z,27.03
2018-12-05T22:33:24.393Z,25.30
2018-12-05T22:38:28.557Z,28.17
2018-12-05T22:43:32.718Z,30.97
2018-12-05T22:48:36.769Z,26.03
2018-12-05T22:53:41.021Z,30.03
2018-12-05T22:58:45.177Z,27.77
2018-12-05T23:03:49.405Z,29.33
2018-12-05T23:08:53.521Z,26.87
2018-12-05T23:13:57.713Z,27.40
2018-12-05T23:19:01.894Z,29.23
2018-12-05T23:24:06.144Z,29.37
2018-12-05T23:29:10.425Z,29.83
2018-12-05T23:34:14.752Z,25.77
2018-12-05T23:39:18.939Z,25.47
2018-12-05T23:44:23.139Z,26.33
2018-12-05T23:49:27.289Z,26.73
2018-12-05T23:54:31.581Z,25.53
2018-12-05T23:59:35.829Z,25.53
